createdAt,value
2019-04-21T00:01:22.359Z,11.40
2019-04-21T00:03:57.453Z,11.40
2019-04-21T00:06:41.101Z,11.40
2019-04-21T00:09:19.210Z,11.40
2019-04-21T00:11:54.156Z,11.40
2019-04-21T00:14:09.003Z,11.40
2019-04-21T00:16:34.780Z,11.30
2019-04-21T00:19:24.677Z,11.30
2019-04-21T00:21:55.983Z,11.20
2019-04-21T00:24:34.697Z,11.10
2019-04-21T00:27:10.925Z,11.00
2019-04-21T00:29:50.367Z,11.00
2019-04-21T00:32:10.119Z,11.00
2019-04-21T00:34:26.227Z,10.90
2019-04-21T00:37:25.898Z,10.90
2019-04-21T00:42:34.303Z,10.80
2019-04-21T00:45:01.897Z,10.80
2019-04-21T00:47:57.707Z,10.80
2019-04-21T00:50:10.870Z,10.70
2019-04-21T00:52:51.284Z,10.60
2019-04-21T00:55:29.858Z,10.60
2019-04-21T00:58:10.654Z,10.50
2019-04-21T01:02:57.975Z,10.60
2019-04-21T01:05:31.357Z,10.60
2019-04-21T01:07:59.440Z,10.50
2019-04-21T01:10:27.336Z,10.50
2019-04-21T01:13:04.309Z,10.50
2019-04-21T01:15:37.547Z,10.50
2019-04-21T01:18:04.797Z,10.50
2019-04-21T01:20:17.491Z,10.50
2019-04-21T01:22:46.656Z,10.50
2019-04-21T01:25:27.394Z,10.50
2019-04-21T01:28:07.258Z,10.50
2019-04-21T01:30:43.105Z,10.60
2019-04-21T01:33:15.179Z,10.60
2019-04-21T01:35:44.113Z,10.50
2019-04-21T01:38:14.165Z,10.40
2019-04-21T01:40:44.904Z,10.40
2019-04-21T01:43:13.593Z,10.50
2019-04-21T01:45:44.151Z,10.50
2019-04-21T01:48:10.366Z,10.50
2019-04-21T01:50:47.152Z,10.40
2019-04-21T01:53:45.499Z,10.20
2019-04-21T01:56:39.552Z,10.20
2019-04-21T01:58:56.959Z,10.20
2019-04-21T02:01:39.150Z,10.10
2019-04-21T02:04:13.975Z,10.10
2019-04-21T02:06:45.682Z,10.10
2019-04-21T02:09:09.990Z,10.10
2019-04-21T02:11:50.188Z,10.00
2019-04-21T02:14:15.670Z,10.00
2019-04-21T02:16:47.774Z,10.00
2019-04-21T02:19:13.760Z,10.00
2019-04-21T02:21:41.061Z,10.00
2019-04-21T02:24:31.195Z,9.90
2019-04-21T02:26:54.286Z,9.90
2019-04-21T02:29:29.388Z,9.90
2019-04-21T02:32:14.325Z,9.90
2019-04-21T02:37:17.606Z,9.80
2019-04-21T02:39:40.726Z,9.80
2019-04-21T02:44:48.135Z,9.70
2019-04-21T02:47:09.570Z,9.70
2019-04-21T03:02:35.137Z,9.70
2019-04-21T03:05:11.528Z,9.70
2019-04-21T03:10:38.250Z,9.70
2019-04-21T03:15:45.096Z,9.80
2019-04-21T03:18:06.347Z,9.80
2019-04-21T03:20:39.921Z,9.60
2019-04-21T03:23:09.356Z,9.60
2019-04-21T03:25:42.732Z,9.50
2019-04-21T03:28:08.279Z,9.60
2019-04-21T03:31:06.522Z,9.60
2019-04-21T03:38:14.831Z,9.50
2019-04-21T03:40:44.301Z,9.50
2019-04-21T03:43:12.493Z,9.40
2019-04-21T03:45:46.318Z,9.30
2019-04-21T03:48:19.353Z,9.20
2019-04-21T03:53:18.718Z,9.30
2019-04-21T03:58:46.373Z,9.40
2019-04-21T04:01:09.233Z,9.30
2019-04-21T04:04:14.801Z,9.10
2019-04-21T04:07:23.355Z,9.00
2019-04-21T04:09:44.394Z,9.10
2019-04-21T04:12:02.434Z,9.10
2019-04-21T04:22:14.669Z,9.10
2019-04-21T04:29:51.348Z,9.00
2019-04-21T04:32:14.638Z,8.90
2019-04-21T04:35:03.838Z,8.80
2019-04-21T04:37:21.487Z,8.80
2019-04-21T04:40:10.882Z,8.80
2019-04-21T04:42:46.216Z,8.80
2019-04-21T04:45:12.684Z,8.90
2019-04-21T04:50:06.778Z,8.80
2019-04-21T04:52:37.871Z,8.90
2019-04-21T04:55:13.809Z,8.90
2019-04-21T04:58:04.692Z,8.90
2019-04-21T05:00:18.129Z,8.90
2019-04-21T05:02:44.422Z,8.90
2019-04-21T05:05:19.335Z,8.90
2019-04-21T05:07:50.518Z,8.90
2019-04-21T05:10:17.296Z,8.90
2019-04-21T05:12:43.950Z,9.00
2019-04-21T05:15:16.077Z,9.00
2019-04-21T05:20:18.561Z,9.20
2019-04-21T05:23:06.324Z,9.20
2019-04-21T05:25:26.517Z,9.20
2019-04-21T05:28:01.052Z,9.30
2019-04-21T05:30:57.759Z,9.40
2019-04-21T05:33:59.120Z,9.50
2019-04-21T05:36:51.656Z,9.60
2019-04-21T05:39:23.228Z,9.70
2019-04-21T05:41:47.813Z,9.90
2019-04-21T05:44:44.500Z,10.00
2019-04-21T05:47:15.952Z,10.20
2019-04-21T05:49:45.475Z,10.30
2019-04-21T05:52:08.205Z,10.50
2019-04-21T05:55:09.582Z,10.70
2019-04-21T05:57:14.802Z,10.90
2019-04-21T05:59:51.627Z,11.10
2019-04-21T06:02:23.701Z,11.20
2019-04-21T06:05:07.996Z,11.40
2019-04-21T06:10:05.068Z,11.70
2019-04-21T06:12:28.399Z,11.80
2019-04-21T06:15:14.153Z,11.90
2019-04-21T06:20:03.001Z,12.30
2019-04-21T06:22:33.062Z,12.50
2019-04-21T06:27:36.295Z,12.70
2019-04-21T06:30:03.481Z,12.90
2019-04-21T06:32:46.855Z,13.10
2019-04-21T06:35:28.539Z,13.30
2019-04-21T06:37:56.559Z,13.50
2019-04-21T06:40:46.121Z,13.70
2019-04-21T06:43:15.646Z,13.90
2019-04-21T06:45:36.575Z,14.10
2019-04-21T06:48:04.690Z,14.30
2019-04-21T06:50:41.215Z,14.40
2019-04-21T06:53:12.133Z,14.40
2019-04-21T06:55:34.147Z,14.40
2019-04-21T06:58:07.977Z,14.50
2019-04-21T07:00:35.864Z,14.70
2019-04-21T07:03:16.034Z,15.00
2019-04-21T07:05:44.089Z,15.30
2019-04-21T07:08:36.935Z,15.50
2019-04-21T07:10:38.525Z,15.60
2019-04-21T07:13:07.799Z,15.90
2019-04-21T07:15:45.420Z,16.00
2019-04-21T07:18:10.972Z,16.10
2019-04-21T07:20:49.071Z,16.20
2019-04-21T07:23:16.245Z,16.40
2019-04-21T07:25:54.871Z,16.40
2019-04-21T07:28:19.321Z,16.50
2019-04-21T07:30:51.817Z,16.70
2019-04-21T07:33:44.737Z,16.80
2019-04-21T07:35:54.120Z,17.00
2019-04-21T07:38:21.187Z,17.00
2019-04-21T07:40:48.471Z,17.10
2019-04-21T07:43:20.467Z,17.50
2019-04-21T07:45:49.617Z,17.50
2019-04-21T07:48:36.098Z,17.40
2019-04-21T07:51:30.353Z,17.60
2019-04-21T07:54:01.874Z,17.70
2019-04-21T07:56:09.531Z,17.80
2019-04-21T08:01:30.732Z,17.80
2019-04-21T08:03:59.229Z,17.80
2019-04-21T08:06:36.608Z,18.00
2019-04-21T08:09:01.103Z,17.90
2019-04-21T08:11:25.370Z,18.20
2019-04-21T08:14:01.145Z,18.50
2019-04-21T08:16:37.228Z,18.60
2019-04-21T08:19:09.630Z,18.70
2019-04-21T08:24:07.755Z,19.40
2019-04-21T08:29:20.704Z,19.60
2019-04-21T08:31:53.006Z,19.80
2019-04-21T08:34:14.061Z,20.00
2019-04-21T08:36:43.275Z,20.20
2019-04-21T08:39:12.939Z,20.50
2019-04-21T08:41:46.444Z,20.60
2019-04-21T08:44:24.283Z,20.70
2019-04-21T08:46:52.811Z,20.90
2019-04-21T08:49:20.845Z,21.10
2019-04-21T08:51:57.775Z,21.10
2019-04-21T08:54:21.859Z,20.90
2019-04-21T08:57:10.426Z,21.10
2019-04-21T08:59:53.382Z,21.00
2019-04-21T09:05:15.443Z,21.30
2019-04-21T09:10:09.695Z,21.20
2019-04-21T09:12:43.243Z,21.30
2019-04-21T09:15:17.352Z,21.40
2019-04-21T09:17:37.370Z,21.30
2019-04-21T09:20:17.228Z,21.20
2019-04-21T09:22:50.650Z,21.30
2019-04-21T09:25:19.591Z,21.50
2019-04-21T09:27:46.740Z,21.80
2019-04-21T09:30:03.516Z,21.90
2019-04-21T09:32:34.862Z,21.90
2019-04-21T09:35:06.089Z,21.80
2019-04-21T09:37:45.865Z,21.80
2019-04-21T09:40:06.646Z,21.80
2019-04-21T09:42:44.297Z,21.90
2019-04-21T09:45:09.979Z,22.00
2019-04-21T09:47:46.492Z,22.10
2019-04-21T09:50:11.503Z,22.00
2019-04-21T09:52:48.859Z,22.20
2019-04-21T09:55:22.805Z,22.50
2019-04-21T09:57:53.991Z,22.40
2019-04-21T10:00:25.248Z,22.70
2019-04-21T10:03:00.594Z,22.60
2019-04-21T10:05:22.963Z,22.60
2019-04-21T10:07:53.147Z,22.70
2019-04-21T10:10:23.106Z,22.80
2019-04-21T10:12:53.982Z,22.80
2019-04-21T10:15:24.964Z,22.80
2019-04-21T10:18:00.569Z,23.00
2019-04-21T10:20:30.931Z,23.20
2019-04-21T10:23:00.558Z,23.10
2019-04-21T10:25:30.654Z,23.30
2019-04-21T10:28:01.303Z,23.20
2019-04-21T10:30:31.046Z,23.20
2019-04-21T10:33:00.705Z,23.00
2019-04-21T10:35:31.078Z,23.30
2019-04-21T10:38:10.975Z,23.60
2019-04-21T10:40:33.946Z,23.80
2019-04-21T10:43:03.904Z,23.90
2019-04-21T10:45:34.813Z,24.00
2019-04-21T10:48:05.142Z,24.10
2019-04-21T10:50:34.856Z,24.00
2019-04-21T10:53:14.582Z,24.40
2019-04-21T10:55:56.695Z,24.50
2019-04-21T10:58:22.598Z,24.20
2019-04-21T11:00:57.835Z,24.10
2019-04-21T11:03:38.431Z,24.20
2019-04-21T11:06:08.645Z,24.10
2019-04-21T11:08:44.034Z,24.50
2019-04-21T11:11:10.059Z,24.90
2019-04-21T11:13:40.827Z,25.10
2019-04-21T11:16:11.006Z,24.90
2019-04-21T11:18:41.951Z,25.10
2019-04-21T11:21:11.651Z,25.00
2019-04-21T11:23:41.024Z,25.00
2019-04-21T11:26:11.876Z,25.10
2019-04-21T11:28:42.887Z,25.50
2019-04-21T11:31:13.205Z,25.30
2019-04-21T11:33:43.130Z,25.20
2019-04-21T11:36:13.316Z,25.40
2019-04-21T11:39:03.288Z,25.80
2019-04-21T11:41:19.465Z,25.80
2019-04-21T11:43:48.988Z,25.70
2019-04-21T11:46:18.376Z,26.00
2019-04-21T11:48:48.371Z,25.80
2019-04-21T11:51:19.165Z,26.00
2019-04-21T11:53:49.130Z,26.00
2019-04-21T11:56:18.884Z,26.00
2019-04-21T11:58:48.760Z,25.90
2019-04-21T12:01:29.622Z,25.90
2019-04-21T12:03:59.965Z,25.60
2019-04-21T12:06:37.131Z,25.10
2019-04-21T12:09:02.862Z,24.40
2019-04-21T12:11:31.684Z,25.00
2019-04-21T12:14:01.096Z,25.20
2019-04-21T12:16:30.818Z,25.10
2019-04-21T12:19:00.951Z,24.60
2019-04-21T12:21:45.106Z,24.50
2019-04-21T12:24:02.731Z,24.80
2019-04-21T12:26:32.248Z,24.40
2019-04-21T12:29:01.914Z,24.30
2019-04-21T12:31:47.645Z,24.80
2019-04-21T12:34:17.943Z,25.10
2019-04-21T12:36:48.735Z,25.40
2019-04-21T12:39:18.747Z,25.20
2019-04-21T12:41:48.858Z,24.60
2019-04-21T12:44:18.937Z,24.00
2019-04-21T12:46:48.333Z,24.00
2019-04-21T12:49:18.077Z,23.70
2019-04-21T12:51:48.024Z,23.50
2019-04-21T12:54:17.619Z,23.10
2019-04-21T12:56:47.646Z,23.60
2019-04-21T12:59:17.284Z,23.40
2019-04-21T13:01:46.593Z,23.30
2019-04-21T13:04:17.617Z,22.80
2019-04-21T13:07:07.685Z,22.80
2019-04-21T13:09:37.585Z,22.80
2019-04-21T13:12:08.884Z,22.70
2019-04-21T13:14:38.331Z,22.90
2019-04-21T13:17:07.703Z,22.60
2019-04-21T13:19:37.076Z,22.60
2019-04-21T13:22:07.805Z,22.50
2019-04-21T13:24:37.954Z,22.40
2019-04-21T13:27:09.409Z,22.20
2019-04-21T13:29:38.717Z,22.40
2019-04-21T13:32:08.959Z,22.30
2019-04-21T13:34:40.100Z,22.30
2019-04-21T13:37:09.807Z,21.80
2019-04-21T13:40:21.032Z,21.60
2019-04-21T13:42:39.402Z,21.50
2019-04-21T13:45:04.878Z,21.20
2019-04-21T13:47:34.647Z,21.00
2019-04-21T13:50:06.722Z,20.80
2019-04-21T13:52:36.486Z,20.60
2019-04-21T13:55:07.783Z,20.50
2019-04-21T13:57:38.705Z,20.40
2019-04-21T14:00:08.996Z,20.20
2019-04-21T14:02:38.797Z,20.10
2019-04-21T14:05:11.535Z,20.00
2019-04-21T14:07:39.956Z,20.00
2019-04-21T14:10:13.738Z,20.00
2019-04-21T14:12:42.508Z,20.00
2019-04-21T14:15:14.619Z,19.90
2019-04-21T14:17:44.663Z,19.90
2019-04-21T14:20:15.311Z,19.80
2019-04-21T14:22:46.346Z,19.80
2019-04-21T14:25:17.444Z,19.80
2019-04-21T14:27:49.964Z,19.60
2019-04-21T14:30:20.538Z,19.50
2019-04-21T14:32:50.432Z,19.60
2019-04-21T14:35:20.937Z,19.60
2019-04-21T14:37:50.745Z,19.60
2019-04-21T14:40:25.486Z,19.50
2019-04-21T14:43:11.784Z,19.50
2019-04-21T14:45:52.948Z,19.40
2019-04-21T14:48:41.147Z,19.30
2019-04-21T14:51:29.379Z,19.40
2019-04-21T14:54:20.684Z,19.30
2019-04-21T14:56:51.285Z,19.30
2019-04-21T14:59:21.370Z,19.20
2019-04-21T15:01:51.788Z,19.20
2019-04-21T15:04:22.372Z,19.20
2019-04-21T15:06:52.387Z,19.20
2019-04-21T15:09:22.977Z,19.20
2019-04-21T15:11:53.846Z,19.30
2019-04-21T15:14:24.122Z,19.30
2019-04-21T15:16:54.639Z,19.30
2019-04-21T15:19:26.594Z,19.30
2019-04-21T15:21:56.683Z,19.20
2019-04-21T15:24:26.660Z,19.30
2019-04-21T15:26:56.875Z,19.30
2019-04-21T15:29:26.782Z,19.30
2019-04-21T15:31:56.842Z,19.30
2019-04-21T15:34:27.379Z,19.30
2019-04-21T15:36:57.979Z,19.20
2019-04-21T15:39:28.031Z,19.30
2019-04-21T15:41:58.894Z,19.30
2019-04-21T15:44:28.600Z,19.20
2019-04-21T15:46:58.078Z,19.10
2019-04-21T15:49:42.081Z,19.00
2019-04-21T15:52:02.030Z,18.90
2019-04-21T15:54:32.407Z,18.80
2019-04-21T15:57:11.171Z,18.80
2019-04-21T16:00:06.662Z,18.70
2019-04-21T16:02:44.665Z,18.80
2019-04-21T16:05:15.106Z,18.70
2019-04-21T16:07:44.596Z,18.70
2019-04-21T16:10:28.281Z,18.70
2019-04-21T16:12:45.803Z,18.60
2019-04-21T16:15:16.698Z,18.60
2019-04-21T16:17:47.580Z,18.50
2019-04-21T16:20:19.639Z,18.50
2019-04-21T16:22:50.608Z,18.50
2019-04-21T16:25:21.048Z,18.50
2019-04-21T16:27:51.007Z,18.40
2019-04-21T16:30:21.794Z,18.40
2019-04-21T16:32:52.279Z,18.40
2019-04-21T16:35:23.460Z,18.30
2019-04-21T16:37:55.749Z,18.30
2019-04-21T16:40:25.381Z,18.30
2019-04-21T16:42:56.235Z,18.20
2019-04-21T16:45:26.078Z,18.20
2019-04-21T16:47:57.364Z,18.20
2019-04-21T16:50:27.994Z,18.20
2019-04-21T16:53:01.802Z,18.10
2019-04-21T16:55:39.320Z,18.10
2019-04-21T16:58:28.953Z,18.10
2019-04-21T17:01:09.174Z,18.10
2019-04-21T17:03:35.054Z,18.10
2019-04-21T17:06:05.246Z,18.10
2019-04-21T17:08:36.708Z,18.00
2019-04-21T17:11:16.477Z,18.00
2019-04-21T17:13:42.039Z,18.00
2019-04-21T17:16:40.721Z,18.00
2019-04-21T17:18:56.627Z,18.00
2019-04-21T17:21:15.274Z,18.00
2019-04-21T17:23:46.450Z,17.90
2019-04-21T17:26:17.067Z,17.90
2019-04-21T17:28:46.951Z,17.90
2019-04-21T17:31:18.102Z,17.90
2019-04-21T17:33:57.864Z,17.80
2019-04-21T17:36:21.103Z,17.80
2019-04-21T17:38:50.724Z,17.80
2019-04-21T17:41:27.920Z,17.80
2019-04-21T17:43:52.603Z,17.80
2019-04-21T17:46:31.545Z,17.70
2019-04-21T17:48:53.228Z,17.70
2019-04-21T17:51:32.673Z,17.70
2019-04-21T17:54:13.555Z,17.60
2019-04-21T17:57:04.571Z,17.50
2019-04-21T17:59:43.178Z,17.50
2019-04-21T18:01:59.269Z,17.50
2019-04-21T18:04:31.012Z,17.50
2019-04-21T18:07:15.613Z,17.50
2019-04-21T18:09:56.480Z,17.40
2019-04-21T18:12:24.940Z,17.30
2019-04-21T18:14:51.797Z,17.30
2019-04-21T18:17:11.805Z,17.20
2019-04-21T18:19:44.058Z,17.20
2019-04-21T18:22:35.835Z,17.10
2019-04-21T18:25:09.886Z,17.10
2019-04-21T18:27:36.644Z,17.00
2019-04-21T18:30:28.894Z,17.00
2019-04-21T18:32:59.892Z,17.00
2019-04-21T18:35:36.570Z,16.90
2019-04-21T18:38:21.963Z,16.80
2019-04-21T18:40:49.065Z,16.80
2019-04-21T18:46:48.560Z,16.70
2019-04-21T18:49:06.739Z,16.70
2019-04-21T18:52:00.220Z,16.60
2019-04-21T18:54:41.341Z,16.50
2019-04-21T18:57:08.168Z,16.40
2019-04-21T18:59:34.580Z,16.30
2019-04-21T19:02:06.088Z,16.30
2019-04-21T19:04:33.806Z,16.20
2019-04-21T19:07:18.245Z,16.20
2019-04-21T19:10:50.745Z,16.10
2019-04-21T19:12:34.041Z,16.00
2019-04-21T19:14:52.126Z,16.00
2019-04-21T19:20:04.686Z,15.80
2019-04-21T19:22:28.167Z,15.80
2019-04-21T19:24:59.398Z,15.80
2019-04-21T19:27:26.550Z,15.80
2019-04-21T19:30:05.437Z,15.70
2019-04-21T19:32:28.859Z,15.60
2019-04-21T19:34:48.363Z,15.60
2019-04-21T19:37:20.147Z,15.50
2019-04-21T19:39:58.918Z,15.40
2019-04-21T19:42:30.703Z,15.40
2019-04-21T19:45:06.217Z,15.40
2019-04-21T19:47:41.478Z,15.40
2019-04-21T19:50:11.773Z,15.30
2019-04-21T19:52:34.560Z,15.30
2019-04-21T19:54:54.982Z,15.40
2019-04-21T19:57:25.102Z,15.30
2019-04-21T19:59:58.503Z,15.20
2019-04-21T20:02:26.793Z,15.10
2019-04-21T20:05:03.437Z,15.10
2019-04-21T20:07:45.498Z,15.10
2019-04-21T20:10:22.637Z,15.00
2019-04-21T20:12:52.144Z,15.00
2019-04-21T20:15:31.414Z,14.90
2019-04-21T20:17:54.020Z,14.90
2019-04-21T20:20:08.949Z,14.90
2019-04-21T20:22:43.370Z,14.90
2019-04-21T20:25:15.582Z,14.80
2019-04-21T20:27:54.542Z,14.80
2019-04-21T20:30:34.700Z,14.80
2019-04-21T20:33:14.170Z,14.70
2019-04-21T20:35:40.405Z,14.60
2019-04-21T20:38:05.124Z,14.60
2019-04-21T20:40:28.886Z,14.50
2019-04-21T20:43:08.629Z,14.40
2019-04-21T20:45:40.287Z,14.40
2019-04-21T20:47:54.599Z,14.40
2019-04-21T20:50:36.372Z,14.40
2019-04-21T20:53:11.303Z,14.40
2019-04-21T20:55:42.975Z,14.40
2019-04-21T20:58:09.217Z,14.40
2019-04-21T21:00:56.177Z,14.40
2019-04-21T21:03:21.283Z,14.30
2019-04-21T21:05:45.116Z,14.30
2019-04-21T21:08:26.046Z,14.20
2019-04-21T21:10:43.997Z,14.20
2019-04-21T21:13:26.395Z,14.20
2019-04-21T21:16:04.115Z,14.10
2019-04-21T21:18:52.126Z,14.00
2019-04-21T21:20:55.664Z,14.00
2019-04-21T21:23:20.441Z,13.90
2019-04-21T21:25:54.527Z,13.80
2019-04-21T21:28:29.088Z,13.70
2019-04-21T21:31:02.724Z,13.70
2019-04-21T21:33:25.743Z,13.70
2019-04-21T21:36:06.468Z,13.70
2019-04-21T21:38:30.799Z,13.70
2019-04-21T21:40:57.391Z,13.70
2019-04-21T21:43:23.092Z,13.70
2019-04-21T21:45:55.364Z,13.60
2019-04-21T21:48:37.052Z,13.50
2019-04-21T21:51:03.578Z,13.50
2019-04-21T21:53:25.429Z,13.40
2019-04-21T21:55:53.931Z,13.40
2019-04-21T21:58:28.542Z,13.40
2019-04-21T22:01:00.561Z,13.30
2019-04-21T22:03:33.533Z,13.30
2019-04-21T22:06:07.288Z,13.30
2019-04-21T22:08:30.462Z,13.30
2019-04-21T22:11:01.427Z,13.30
2019-04-21T22:13:37.612Z,13.20
2019-04-21T22:16:06.772Z,13.20
2019-04-21T22:18:58.589Z,13.20
2019-04-21T22:21:18.756Z,13.20
2019-04-21T22:23:43.852Z,13.20
2019-04-21T22:26:09.166Z,13.20
2019-04-21T22:28:39.966Z,13.30
2019-04-21T22:31:14.948Z,13.30
2019-04-21T22:33:48.400Z,13.30
2019-04-21T22:36:26.740Z,13.30
2019-04-21T22:38:59.972Z,13.40
2019-04-21T22:41:24.518Z,13.40
2019-04-21T22:43:49.343Z,13.50
2019-04-21T22:46:16.344Z,13.40
2019-04-21T22:48:53.045Z,13.50
2019-04-21T22:51:23.801Z,13.40
2019-04-21T22:53:51.885Z,13.40
2019-04-21T22:56:24.375Z,13.40
2019-04-21T22:58:51.301Z,13.40
2019-04-21T23:01:28.512Z,13.40
2019-04-21T23:03:56.920Z,13.40
2019-04-21T23:06:28.689Z,13.30
2019-04-21T23:08:55.085Z,13.30
2019-04-21T23:11:28.034Z,13.20
2019-04-21T23:14:04.090Z,13.10
2019-04-21T23:16:32.243Z,13.10
2019-04-21T23:19:15.899Z,13.00
2019-04-21T23:21:51.460Z,13.00
2019-04-21T23:24:17.805Z,12.90
2019-04-21T23:26:41.954Z,13.00
2019-04-21T23:29:17.343Z,12.90
2019-04-21T23:31:52.133Z,12.80
2019-04-21T23:34:04.476Z,12.90
2019-04-21T23:36:35.958Z,12.80
2019-04-21T23:39:13.198Z,12.80
2019-04-21T23:41:42.317Z,12.70
2019-04-21T23:44:13.169Z,12.70
2019-04-21T23:46:40.888Z,12.70
2019-04-21T23:49:21.475Z,12.70
2019-04-21T23:51:50.054Z,12.60
2019-04-21T23:54:13.357Z,12.60
2019-04-21T23:56:45.703Z,12.60
2019-04-21T23:59:16.054Z,12.60
